Time;durP1;ratioP1;P1;durP2;ratioP2;P2;SDS_P1;SDS_P2;PMS_P1;PMS_P2;Temp;Humidity;BMP_temperature;BMP_pressure;BME280_temperature;BME280_humidity;BME280_pressure;Samples;Min_cycle;Max_cycle;Signal;HPM_P1;HPM_P2
2023/07/02 00:01:45;;;;;;;17.45;6.68;;;16.00;99.90;;;;;;4955172;28;20043;-57
2023/07/02 00:04:13;;;;;;;20.30;6.85;;;15.90;99.90;;;;;;4940380;28;20085;-57
2023/07/02 00:06:40;;;;;;;19.02;7.28;;;15.90;99.90;;;;;;4956735;28;20039;-56
2023/07/02 00:09:07;;;;;;;19.95;6.97;;;15.90;99.90;;;;;;4959729;28;20039;-57
2023/07/02 00:11:33;;;;;;;21.58;7.75;;;15.80;99.90;;;;;;4953370;28;20392;-57
2023/07/02 00:13:58;;;;;;;14.68;6.97;;;15.80;99.90;;;;;;4950028;28;20035;-56
2023/07/02 00:16:24;;;;;;;23.17;7.35;;;15.80;99.90;;;;;;4950395;28;21136;-56
2023/07/02 00:18:52;;;;;;;17.38;7.00;;;15.70;99.90;;;;;;4934777;28;20043;-57
2023/07/02 00:21:21;;;;;;;17.17;7.25;;;15.70;99.90;;;;;;4948524;28;20050;-56
2023/07/02 00:23:47;;;;;;;22.52;7.93;;;15.70;99.90;;;;;;4953899;28;20043;-56
2023/07/02 00:26:14;;;;;;;21.73;7.10;;;15.70;99.90;;;;;;4956460;28;20124;-55
2023/07/02 00:28:39;;;;;;;24.23;8.05;;;15.60;99.90;;;;;;4950546;28;20063;-57
2023/07/02 00:31:05;;;;;;;19.92;7.15;;;15.60;99.90;;;;;;4951052;28;20131;-57
2023/07/02 00:33:32;;;;;;;17.02;7.18;;;15.60;99.90;;;;;;4952567;28;20031;-56
2023/07/02 00:36:00;;;;;;;18.45;7.57;;;15.50;99.90;;;;;;4949992;28;20126;-56
2023/07/02 00:38:26;;;;;;;21.23;7.38;;;15.50;99.90;;;;;;4952739;28;20039;-57
2023/07/02 00:40:52;;;;;;;19.05;7.57;;;15.50;99.90;;;;;;4951839;28;20086;-56
2023/07/02 00:43:17;;;;;;;19.83;7.15;;;15.40;99.90;;;;;;4952278;28;20055;-56
2023/07/02 00:45:45;;;;;;;21.15;7.60;;;15.40;99.90;;;;;;4957197;28;20117;-57
2023/07/02 00:48:11;;;;;;;21.67;7.93;;;15.40;99.90;;;;;;4955637;28;20047;-57
2023/07/02 00:50:38;;;;;;;26.52;8.30;;;15.30;99.90;;;;;;4953268;28;20451;-57
2023/07/02 00:53:04;;;;;;;18.08;7.78;;;15.30;99.90;;;;;;4954539;28;20390;-55
2023/07/02 00:55:30;;;;;;;24.05;7.70;;;15.30;99.90;;;;;;4953149;28;20047;-56
2023/07/02 00:57:56;;;;;;;25.02;8.55;;;15.30;99.90;;;;;;4955945;28;20046;-56
2023/07/02 01:00:22;;;;;;;22.35;9.00;;;15.20;99.90;;;;;;4952992;28;20046;-55
2023/07/02 01:02:58;;;;;;;25.92;8.75;;;15.20;99.90;;;;;;4951492;28;20610;-56
2023/07/02 01:05:35;;;;;;;24.20;8.40;;;15.20;99.90;;;;;;4950702;28;20050;-56
2023/07/02 01:08:07;;;;;;;17.35;7.35;;;15.10;99.90;;;;;;4928142;28;20400;-55
2023/07/02 01:10:35;;;;;;;23.58;7.97;;;15.10;99.90;;;;;;4949834;28;20050;-56
2023/07/02 01:13:07;;;;;;;25.00;9.20;;;15.10;99.90;;;;;;4951412;28;20047;-56
2023/07/02 01:15:33;;;;;;;20.40;8.52;;;15.10;99.90;;;;;;4925864;28;20046;-56
2023/07/02 01:17:59;;;;;;;23.30;8.52;;;15.10;99.90;;;;;;4926965;28;20055;-56
2023/07/02 01:20:26;;;;;;;25.33;8.32;;;15.00;99.90;;;;;;4912091;28;20503;-56
2023/07/02 01:22:53;;;;;;;22.23;8.57;;;15.00;99.90;;;;;;4944773;28;20046;-56
2023/07/02 01:25:24;;;;;;;21.73;8.82;;;15.00;99.90;;;;;;4945940;28;20031;-56
2023/07/02 01:27:51;;;;;;;23.42;8.40;;;15.00;99.90;;;;;;4950474;28;20039;-56
2023/07/02 01:30:16;;;;;;;21.63;8.32;;;14.90;99.90;;;;;;4919378;28;20105;-56
2023/07/02 01:32:42;;;;;;;23.75;8.43;;;14.90;99.90;;;;;;4948644;28;20039;-56
2023/07/02 01:35:08;;;;;;;21.70;8.48;;;14.90;99.90;;;;;;4921073;28;20054;-57
2023/07/02 01:37:37;;;;;;;30.35;8.95;;;14.80;99.90;;;;;;4951741;28;20047;-56
2023/07/02 01:40:06;;;;;;;26.13;8.68;;;14.80;99.90;;;;;;4954618;28;20149;-57
2023/07/02 01:42:32;;;;;;;28.48;8.93;;;14.80;99.90;;;;;;4941328;28;20073;-56
2023/07/02 01:44:58;;;;;;;26.83;9.30;;;14.70;99.90;;;;;;4948973;28;20114;-56
2023/07/02 01:47:24;;;;;;;23.52;8.70;;;14.70;99.90;;;;;;4952488;28;20120;-56
2023/07/02 01:49:50;;;;;;;27.38;8.50;;;14.70;99.90;;;;;;4953964;28;20165;-55
2023/07/02 01:52:16;;;;;;;27.92;9.02;;;14.70;99.90;;;;;;4934428;28;20065;-57
2023/07/02 01:54:43;;;;;;;24.65;8.63;;;14.70;99.90;;;;;;4937029;28;23217;-56
2023/07/02 01:57:09;;;;;;;25.20;8.52;;;14.60;99.90;;;;;;4952856;28;20039;-56
2023/07/02 01:59:35;;;;;;;27.55;8.70;;;14.60;99.90;;;;;;4945651;28;20539;-57
2023/07/02 02:02:01;;;;;;;24.95;8.93;;;14.60;99.90;;;;;;4948694;28;20067;-55
2023/07/02 02:04:27;;;;;;;25.13;7.60;;;14.50;99.90;;;;;;4948421;28;20034;-57
2023/07/02 02:06:53;;;;;;;32.60;9.57;;;14.50;99.90;;;;;;4952653;28;20073;-55
2023/07/02 02:09:19;;;;;;;28.27;8.82;;;14.50;99.90;;;;;;4912744;28;20125;-55
2023/07/02 02:11:47;;;;;;;27.70;8.80;;;14.40;99.90;;;;;;4952109;28;20067;-56
2023/07/02 02:14:13;;;;;;;33.00;10.07;;;14.40;99.90;;;;;;4953342;28;20078;-56
2023/07/02 02:16:39;;;;;;;28.25;9.38;;;14.40;99.90;;;;;;4949273;28;20225;-56
2023/07/02 02:19:05;;;;;;;27.60;8.98;;;14.40;99.90;;;;;;4952742;28;20042;-54
2023/07/02 02:21:31;;;;;;;20.80;8.70;;;14.40;99.90;;;;;;4935057;28;20042;-56
2023/07/02 02:23:57;;;;;;;26.70;8.13;;;14.30;99.90;;;;;;4949137;28;20067;-56
2023/07/02 02:26:25;;;;;;;26.77;9.65;;;14.30;99.90;;;;;;4951464;28;20496;-55
2023/07/02 02:28:51;;;;;;;25.88;9.32;;;14.30;99.90;;;;;;4950825;28;20130;-56
2023/07/02 02:31:17;;;;;;;29.20;9.15;;;14.30;99.90;;;;;;4931446;28;20074;-54
2023/07/02 02:33:43;;;;;;;29.88;9.07;;;14.20;99.90;;;;;;4952380;28;20491;-56
2023/07/02 02:36:09;;;;;;;25.60;9.05;;;14.20;99.90;;;;;;4930840;28;20047;-56
2023/07/02 02:38:37;;;;;;;24.85;8.73;;;14.20;99.90;;;;;;4949949;28;20038;-56
2023/07/02 02:41:03;;;;;;;27.25;9.57;;;14.10;99.90;;;;;;4950636;28;20054;-56
2023/07/02 02:43:29;;;;;;;31.55;9.35;;;14.10;99.90;;;;;;4952838;28;20042;-57
2023/07/02 02:45:55;;;;;;;26.08;9.60;;;14.10;99.90;;;;;;4951205;28;20094;-56
2023/07/02 02:48:23;;;;;;;28.75;9.52;;;14.10;99.90;;;;;;4955508;28;20077;-56
2023/07/02 02:50:49;;;;;;;28.13;9.15;;;14.10;99.90;;;;;;4941142;28;20145;-56
2023/07/02 02:53:14;;;;;;;32.15;9.13;;;14.00;99.90;;;;;;4941641;28;20074;-55
2023/07/02 02:55:40;;;;;;;25.42;9.50;;;14.00;99.90;;;;;;4952396;28;20134;-56
2023/07/02 02:58:06;;;;;;;30.40;9.73;;;14.00;99.90;;;;;;4952237;28;21272;-56
2023/07/02 03:00:32;;;;;;;36.10;9.30;;;13.90;99.90;;;;;;4950626;28;20047;-56
2023/07/02 03:02:58;;;;;;;27.75;9.75;;;13.90;99.90;;;;;;4954478;28;20068;-56
2023/07/02 03:05:24;;;;;;;26.90;9.32;;;13.90;99.90;;;;;;4941471;28;20142;-54
2023/07/02 03:07:51;;;;;;;29.20;10.35;;;13.90;99.90;;;;;;4935264;28;20859;-56
2023/07/02 03:10:17;;;;;;;26.92;10.07;;;13.90;99.90;;;;;;4951265;28;20043;-55
2023/07/02 03:12:42;;;;;;;30.65;10.55;;;13.90;99.90;;;;;;4952222;28;20515;-55
2023/07/02 03:15:09;;;;;;;28.20;8.98;;;13.80;99.90;;;;;;4938002;28;20041;-56
2023/07/02 03:17:35;;;;;;;23.27;9.85;;;13.90;99.90;;;;;;4948636;28;20436;-54
2023/07/02 03:20:01;;;;;;;28.15;9.93;;;13.80;99.90;;;;;;4951095;28;20038;-55
2023/07/02 03:22:26;;;;;;;23.15;8.82;;;13.80;99.90;;;;;;4935326;28;20039;-56
2023/07/02 03:24:52;;;;;;;29.33;9.85;;;13.80;99.90;;;;;;4922453;28;20046;-55
2023/07/02 03:27:18;;;;;;;30.15;9.65;;;13.80;99.90;;;;;;4948617;28;20045;-56
2023/07/02 03:29:44;;;;;;;28.50;8.40;;;13.80;99.90;;;;;;4948419;28;20535;-56
2023/07/02 03:32:09;;;;;;;26.00;9.32;;;13.80;99.90;;;;;;4950041;28;20566;-56
2023/07/02 03:34:35;;;;;;;25.05;9.38;;;13.80;99.90;;;;;;4950829;28;20039;-56
2023/07/02 03:37:01;;;;;;;26.73;8.63;;;13.90;99.90;;;;;;4945153;28;20120;-55
2023/07/02 03:39:26;;;;;;;30.13;9.10;;;13.90;99.90;;;;;;4943201;28;20712;-56
2023/07/02 03:41:52;;;;;;;30.70;9.82;;;13.90;99.90;;;;;;4948171;28;20046;-53
2023/07/02 03:44:19;;;;;;;28.17;9.55;;;13.90;99.90;;;;;;4952997;28;20069;-56
2023/07/02 03:46:45;;;;;;;35.15;9.15;;;14.00;99.90;;;;;;4944092;28;20043;-54
2023/07/02 03:49:11;;;;;;;27.65;8.77;;;14.00;99.90;;;;;;4932640;28;20502;-56
2023/07/02 03:51:36;;;;;;;26.92;8.73;;;14.00;99.90;;;;;;4945064;28;20079;-55
2023/07/02 03:54:02;;;;;;;26.23;8.55;;;14.00;99.90;;;;;;4947490;28;20050;-56
2023/07/02 03:56:28;;;;;;;21.67;8.70;;;14.00;99.90;;;;;;4953342;28;20944;-57
2023/07/02 03:58:53;;;;;;;27.52;8.50;;;14.00;99.90;;;;;;4953483;28;20395;-57
2023/07/02 04:01:19;;;;;;;24.90;8.68;;;14.00;99.90;;;;;;4952489;28;20121;-56
2023/07/02 04:03:49;;;;;;;26.42;8.48;;;14.10;99.90;;;;;;4952202;28;20454;-56
2023/07/02 04:06:15;;;;;;;26.73;8.88;;;14.10;99.90;;;;;;4935656;28;20064;-56
2023/07/02 04:08:41;;;;;;;26.30;8.52;;;14.10;99.90;;;;;;4951579;28;20533;-55
2023/07/02 04:11:07;;;;;;;26.52;9.20;;;14.10;99.90;;;;;;4956443;28;20420;-56
2023/07/02 04:13:33;;;;;;;34.63;8.85;;;14.10;99.90;;;;;;4952504;28;20043;-55
2023/07/02 04:15:58;;;;;;;25.73;9.20;;;14.10;99.90;;;;;;4954082;28;20066;-57
2023/07/02 04:18:24;;;;;;;30.52;9.27;;;14.20;99.90;;;;;;4948635;28;20061;-56
2023/07/02 04:20:50;;;;;;;24.65;8.63;;;14.20;99.90;;;;;;4951653;28;20045;-53
2023/07/02 04:23:16;;;;;;;26.15;8.93;;;14.30;99.90;;;;;;4948812;28;20059;-56
2023/07/02 04:25:42;;;;;;;25.70;8.82;;;14.30;99.90;;;;;;4953326;28;20047;-55
2023/07/02 04:28:08;;;;;;;28.60;8.52;;;14.30;99.90;;;;;;4950067;28;20030;-56
2023/07/02 04:30:34;;;;;;;26.35;8.80;;;14.30;99.90;;;;;;4936262;28;20481;-56
2023/07/02 04:33:00;;;;;;;22.67;8.15;;;14.40;99.90;;;;;;4949024;28;20083;-56
2023/07/02 04:35:25;;;;;;;22.73;8.18;;;14.40;99.90;;;;;;4953891;28;20042;-56
2023/07/02 04:37:51;;;;;;;27.10;8.38;;;14.40;99.90;;;;;;4951685;28;20542;-54
2023/07/02 04:40:19;;;;;;;30.38;9.63;;;14.50;99.90;;;;;;4948594;28;20058;-55
2023/07/02 04:42:48;;;;;;;23.13;8.07;;;14.50;99.90;;;;;;4945033;28;20046;-54
2023/07/02 04:45:15;;;;;;;25.30;7.68;;;14.50;99.90;;;;;;4940563;28;20055;-55
2023/07/02 04:47:45;;;;;;;26.60;8.45;;;14.50;99.90;;;;;;4922319;28;20055;-55
2023/07/02 04:50:14;;;;;;;20.35;7.55;;;14.60;99.90;;;;;;4946771;28;20508;-55
2023/07/02 04:52:39;;;;;;;28.08;8.48;;;14.60;99.90;;;;;;4951457;28;20035;-56
2023/07/02 04:55:06;;;;;;;23.73;7.68;;;14.60;99.90;;;;;;4950332;28;20070;-56
2023/07/02 04:57:32;;;;;;;22.33;7.60;;;14.70;99.90;;;;;;4949886;28;20284;-55
2023/07/02 04:59:58;;;;;;;19.10;7.22;;;14.70;99.90;;;;;;4949809;28;20560;-57
2023/07/02 05:02:23;;;;;;;23.20;7.97;;;14.70;99.90;;;;;;4950232;28;20050;-56
2023/07/02 05:04:49;;;;;;;26.40;7.10;;;14.80;99.90;;;;;;4949773;28;20042;-55
2023/07/02 05:07:16;;;;;;;23.25;6.63;;;14.80;99.90;;;;;;4940078;28;20443;-56
2023/07/02 05:09:42;;;;;;;19.15;6.75;;;14.90;99.90;;;;;;4943999;28;20078;-56
2023/07/02 05:12:09;;;;;;;18.52;6.85;;;15.00;99.90;;;;;;4943440;28;20039;-56
2023/07/02 05:14:35;;;;;;;21.83;7.30;;;15.10;99.90;;;;;;4930329;28;20046;-56
2023/07/02 05:17:01;;;;;;;24.42;6.95;;;15.20;99.90;;;;;;4944454;28;20039;-56
2023/07/02 05:19:26;;;;;;;17.90;6.22;;;15.30;99.90;;;;;;4930441;28;20446;-56
2023/07/02 05:21:52;;;;;;;21.55;6.50;;;15.40;99.90;;;;;;4948810;28;20086;-56
2023/07/02 05:24:18;;;;;;;14.48;5.60;;;15.40;99.90;;;;;;4947691;28;20500;-55
2023/07/02 05:26:44;;;;;;;21.25;6.28;;;15.40;99.90;;;;;;4948731;28;20039;-56
2023/07/02 05:29:10;;;;;;;19.02;6.18;;;15.40;99.90;;;;;;4948940;28;20488;-56
2023/07/02 05:31:36;;;;;;;17.75;6.00;;;15.40;99.90;;;;;;4950484;28;20048;-56
2023/07/02 05:34:01;;;;;;;14.25;5.18;;;15.50;99.90;;;;;;4950324;28;20039;-56
2023/07/02 05:36:27;;;;;;;25.50;6.53;;;15.50;99.90;;;;;;4948540;28;20074;-55
2023/07/02 05:38:53;;;;;;;18.83;6.30;;;15.50;99.90;;;;;;4949949;28;20039;-56
2023/07/02 05:41:22;;;;;;;21.25;6.30;;;15.50;99.90;;;;;;4935605;28;20142;-55
2023/07/02 05:43:49;;;;;;;16.80;6.47;;;15.50;99.90;;;;;;4950135;28;20093;-56
2023/07/02 05:46:15;;;;;;;17.20;6.30;;;15.50;99.90;;;;;;4951411;28;20059;-56
2023/07/02 05:48:41;;;;;;;18.75;6.95;;;15.50;99.90;;;;;;4951581;28;20508;-57
2023/07/02 05:51:08;;;;;;;17.55;6.05;;;15.60;99.90;;;;;;4933541;28;20079;-55
2023/07/02 05:53:34;;;;;;;19.23;6.43;;;15.60;99.90;;;;;;4951573;28;20043;-56
2023/07/02 05:56:00;;;;;;;19.33;7.32;;;15.70;99.90;;;;;;4951372;28;20771;-56
2023/07/02 05:58:25;;;;;;;19.27;6.43;;;15.70;99.90;;;;;;4948698;28;20043;-56
2023/07/02 06:00:51;;;;;;;20.23;6.00;;;15.70;99.90;;;;;;4943544;28;20213;-55
2023/07/02 06:03:20;;;;;;;19.45;6.18;;;15.80;99.90;;;;;;4947524;28;20043;-57
2023/07/02 06:05:47;;;;;;;19.55;6.22;;;15.90;99.90;;;;;;4948367;28;20051;-56
2023/07/02 06:08:13;;;;;;;17.73;6.68;;;16.00;99.90;;;;;;4950124;28;20055;-57
2023/07/02 06:10:39;;;;;;;18.80;5.82;;;16.10;99.90;;;;;;4951306;28;20089;-56
2023/07/02 06:13:05;;;;;;;21.42;6.85;;;16.20;99.90;;;;;;4953182;28;20039;-56
2023/07/02 06:15:30;;;;;;;21.23;5.97;;;16.30;99.90;;;;;;4955416;28;20041;-56
2023/07/02 06:17:56;;;;;;;17.15;6.47;;;16.30;99.90;;;;;;4952919;28;20050;-56
2023/07/02 06:20:22;;;;;;;16.70;6.40;;;16.30;99.90;;;;;;4923239;28;20035;-56
2023/07/02 06:22:48;;;;;;;21.58;5.65;;;16.30;99.90;;;;;;4940943;28;20046;-57
2023/07/02 06:25:14;;;;;;;17.27;5.78;;;16.40;99.90;;;;;;4965373;28;20071;-56
2023/07/02 06:27:39;;;;;;;16.92;5.90;;;16.40;99.90;;;;;;4963385;28;20701;-57
2023/07/02 06:30:06;;;;;;;14.23;5.38;;;16.50;99.90;;;;;;4963358;28;20042;-56
2023/07/02 06:32:32;;;;;;;19.92;6.22;;;16.50;99.90;;;;;;4961247;28;20106;-56
2023/07/02 06:34:58;;;;;;;16.10;6.00;;;16.60;99.90;;;;;;4961786;28;20110;-57
2023/07/02 06:37:23;;;;;;;14.05;5.63;;;16.60;99.90;;;;;;4959995;28;20126;-56
2023/07/02 06:39:49;;;;;;;17.63;5.60;;;16.70;99.90;;;;;;4956712;28;20118;-55
2023/07/02 06:42:15;;;;;;;13.98;4.75;;;16.70;99.90;;;;;;4939872;28;20095;-56
2023/07/02 06:44:41;;;;;;;16.10;4.63;;;16.70;99.90;;;;;;4960716;28;20086;-57
2023/07/02 06:47:07;;;;;;;15.57;4.60;;;16.70;99.90;;;;;;4961566;28;20091;-55
2023/07/02 06:49:33;;;;;;;11.10;4.05;;;16.80;99.90;;;;;;4961409;28;20043;-57
2023/07/02 06:52:00;;;;;;;12.63;4.10;;;16.80;99.90;;;;;;4958481;28;20125;-56
2023/07/02 06:54:26;;;;;;;20.52;5.30;;;16.80;99.90;;;;;;4943434;28;20110;-57
2023/07/02 06:56:52;;;;;;;19.60;4.68;;;16.90;99.90;;;;;;4956415;28;20045;-57
2023/07/02 06:59:24;;;;;;;16.15;4.32;;;16.90;99.90;;;;;;4942072;28;20039;-55
2023/07/02 07:01:50;;;;;;;16.83;4.30;;;16.80;99.90;;;;;;4951792;28;20039;-57
2023/07/02 07:04:16;;;;;;;12.13;3.63;;;16.80;99.90;;;;;;4955713;28;20053;-55
2023/07/02 07:06:42;;;;;;;13.43;4.13;;;16.80;99.90;;;;;;4948883;28;20042;-56
2023/07/02 07:09:09;;;;;;;13.10;3.60;;;17.00;99.90;;;;;;4936757;28;20478;-56
2023/07/02 07:11:35;;;;;;;15.60;3.63;;;17.00;99.90;;;;;;4953659;28;20245;-56
2023/07/02 07:14:00;;;;;;;12.77;3.70;;;17.10;99.90;;;;;;4955357;28;20608;-56
2023/07/02 07:16:26;;;;;;;14.77;4.15;;;17.10;99.90;;;;;;4954425;28;20050;-56
2023/07/02 07:18:52;;;;;;;14.55;4.05;;;17.20;99.90;;;;;;4928001;28;20465;-57
2023/07/02 07:21:18;;;;;;;12.02;3.75;;;17.20;99.90;;;;;;4936651;28;20085;-56
2023/07/02 07:23:43;;;;;;;10.55;3.15;;;17.30;99.80;;;;;;4948793;28;20097;-56
2023/07/02 07:26:09;;;;;;;10.40;3.83;;;17.30;99.40;;;;;;4934139;28;20039;-56
2023/07/02 07:28:35;;;;;;;12.23;3.70;;;17.30;99.40;;;;;;4932157;28;20078;-56
2023/07/02 07:31:01;;;;;;;11.82;3.85;;;17.50;99.50;;;;;;4945903;28;20072;-56
2023/07/02 07:33:27;;;;;;;9.27;3.38;;;17.60;99.30;;;;;;4921401;28;20051;-57
2023/07/02 07:35:53;;;;;;;9.38;3.13;;;17.70;99.00;;;;;;4921967;28;20435;-57
2023/07/02 07:38:19;;;;;;;13.43;4.28;;;17.70;98.40;;;;;;4954536;28;20066;-56
2023/07/02 07:40:44;;;;;;;13.60;4.28;;;17.70;98.40;;;;;;4956838;28;20055;-56
2023/07/02 07:43:10;;;;;;;10.05;3.55;;;17.80;98.50;;;;;;4958585;28;20055;-56
2023/07/02 07:45:37;;;;;;;11.45;3.00;;;17.90;98.50;;;;;;4954572;28;20042;-57
2023/07/02 07:48:04;;;;;;;15.38;3.60;;;18.00;98.00;;;;;;4937052;28;20047;-55
2023/07/02 07:50:30;;;;;;;14.40;4.00;;;18.00;97.30;;;;;;4956435;28;20051;-57
2023/07/02 07:52:56;;;;;;;9.80;3.38;;;18.00;97.30;;;;;;4950593;28;20049;-55
2023/07/02 07:55:21;;;;;;;9.95;3.20;;;18.10;97.50;;;;;;4950399;28;20039;-55
2023/07/02 07:57:47;;;;;;;8.88;3.10;;;18.20;97.50;;;;;;4946366;28;20101;-56
2023/07/02 08:00:14;;;;;;;17.70;3.75;;;18.30;97.00;;;;;;4948515;28;20051;-55
2023/07/02 08:02:39;;;;;;;18.60;3.90;;;18.40;96.70;;;;;;4933634;28;20055;-56
2023/07/02 08:05:06;;;;;;;12.90;3.40;;;18.50;96.40;;;;;;4949018;28;20563;-57
2023/07/02 08:07:32;;;;;;;18.77;3.95;;;18.60;96.40;;;;;;4939494;28;20093;-57
2023/07/02 08:09:58;;;;;;;10.93;3.40;;;18.70;96.20;;;;;;4942815;28;20053;-56
2023/07/02 08:12:26;;;;;;;8.55;3.30;;;18.70;95.60;;;;;;4956642;28;20053;-55
2023/07/02 08:14:52;;;;;;;9.50;2.92;;;18.60;95.30;;;;;;4938796;28;20636;-56
2023/07/02 08:17:18;;;;;;;10.10;3.17;;;18.40;94.80;;;;;;4954249;28;20046;-56
2023/07/02 08:19:44;;;;;;;16.55;3.80;;;18.20;95.10;;;;;;4955452;28;20475;-57
2023/07/02 08:22:09;;;;;;;10.20;3.42;;;18.00;95.50;;;;;;4952394;28;20089;-57
2023/07/02 08:24:35;;;;;;;13.32;3.28;;;17.90;95.90;;;;;;4956207;28;20035;-57
2023/07/02 08:27:02;;;;;;;15.18;3.97;;;17.70;96.40;;;;;;4958347;28;20039;-56
2023/07/02 08:29:29;;;;;;;12.07;3.92;;;17.60;97.10;;;;;;4954309;28;20050;-55
2023/07/02 08:31:56;;;;;;;16.42;4.38;;;17.40;97.80;;;;;;4951842;28;20058;-55
2023/07/02 08:34:22;;;;;;;15.80;4.32;;;17.20;98.20;;;;;;4940562;28;20101;-55
2023/07/02 08:36:48;;;;;;;12.23;3.88;;;17.20;98.80;;;;;;4937609;28;20500;-55
2023/07/02 08:39:15;;;;;;;10.27;4.28;;;17.10;99.10;;;;;;4935806;28;20065;-56
2023/07/02 08:41:48;;;;;;;12.30;4.22;;;17.10;99.50;;;;;;4950571;28;20500;-56
2023/07/02 08:44:14;;;;;;;;;;;17.30;99.80;;;;;;4942779;28;20054;-57
2023/07/02 08:46:41;;;;;;;18.73;4.50;;;17.50;99.80;;;;;;4953678;28;19922;-53
2023/07/02 08:49:07;;;;;;;12.38;4.20;;;17.80;99.60;;;;;;4937500;28;20039;-58
2023/07/02 08:51:34;;;;;;;12.57;3.95;;;17.90;99.10;;;;;;4953196;28;20586;-59
2023/07/02 08:53:59;;;;;;;13.45;4.75;;;18.10;98.60;;;;;;4953951;28;20814;-58
2023/07/02 08:56:26;;;;;;;12.90;4.20;;;18.20;98.40;;;;;;4956592;28;20047;-57
2023/07/02 08:58:52;;;;;;;20.33;4.32;;;18.30;98.30;;;;;;4954196;28;20046;-58
2023/07/02 09:01:18;;;;;;;12.75;3.75;;;18.40;98.20;;;;;;4934782;28;20061;-56
2023/07/02 09:03:44;;;;;;;13.48;4.10;;;18.30;98.10;;;;;;4954051;28;20055;-55
2023/07/02 09:06:12;;;;;;;14.55;4.15;;;18.20;98.10;;;;;;4942941;28;20034;-58
2023/07/02 09:08:38;;;;;;;9.25;3.45;;;18.10;98.10;;;;;;4935103;28;20042;-57
2023/07/02 09:11:12;;;;;;;12.27;3.50;;;18.10;98.10;;;;;;4926164;28;21127;-57
2023/07/02 09:13:53;;;;;;;9.98;3.33;;;18.10;97.70;;;;;;4936274;28;20043;-58
2023/07/02 09:16:47;;;;;;;9.52;3.22;;;18.00;97.30;;;;;;4945438;28;20133;-57
2023/07/02 09:19:13;;;;;;;5.38;2.85;;;17.90;97.10;;;;;;4929886;28;20047;-56
2023/07/02 09:21:43;;;;;;;11.43;3.00;;;18.10;96.80;;;;;;4952359;28;20058;-57
2023/07/02 09:24:20;;;;;;;11.80;3.25;;;18.30;96.40;;;;;;4957683;28;20543;-56
2023/07/02 09:26:54;;;;;;;8.82;2.85;;;18.70;96.20;;;;;;4951679;28;20170;-56
2023/07/02 09:29:31;;;;;;;9.27;2.45;;;19.00;95.60;;;;;;4951086;28;20137;-55
2023/07/02 09:32:04;;;;;;;10.50;2.55;;;19.30;94.60;;;;;;4946917;28;20125;-56
2023/07/02 09:34:31;;;;;;;8.50;2.60;;;19.50;93.00;;;;;;4954283;28;20031;-56
2023/07/02 09:36:58;;;;;;;8.30;2.78;;;19.70;92.20;;;;;;4950959;28;20062;-56
2023/07/02 09:39:29;;;;;;;13.52;2.60;;;19.90;92.20;;;;;;4938464;28;20086;-57
2023/07/02 09:41:58;;;;;;;13.35;2.70;;;20.10;91.60;;;;;;4934580;28;20162;-56
2023/07/02 09:44:29;;;;;;;11.10;2.90;;;20.10;90.70;;;;;;4928580;28;20074;-57
2023/07/02 09:47:03;;;;;;;12.80;3.38;;;20.00;89.70;;;;;;4921087;28;20508;-56
2023/07/02 09:49:36;;;;;;;7.18;2.42;;;20.10;90.30;;;;;;4949660;28;20078;-57
2023/07/02 09:52:09;;;;;;;10.75;3.15;;;20.10;89.30;;;;;;4951771;28;20077;-56
2023/07/02 09:54:36;;;;;;;8.20;2.40;;;20.20;88.50;;;;;;4949202;28;20045;-57
2023/07/02 09:57:02;;;;;;;7.72;2.72;;;20.40;87.00;;;;;;4954689;28;20039;-57
2023/07/02 09:59:29;;;;;;;10.25;2.75;;;20.60;85.20;;;;;;4950046;28;20043;-57
2023/07/02 10:01:56;;;;;;;9.10;2.90;;;20.70;84.50;;;;;;4944725;28;20054;-57
2023/07/02 10:04:23;;;;;;;9.85;2.97;;;20.60;84.30;;;;;;4946618;28;20039;-56
2023/07/02 10:06:54;;;;;;;10.68;3.10;;;20.30;84.30;;;;;;4949414;28;20523;-57
2023/07/02 10:09:33;;;;;;;10.57;3.00;;;20.10;84.40;;;;;;4956521;28;20109;-57
2023/07/02 10:11:59;;;;;;;11.88;2.75;;;20.00;85.80;;;;;;4951231;28;20472;-57
2023/07/02 10:14:25;;;;;;;14.23;2.90;;;20.00;85.60;;;;;;4956994;28;20133;-57
2023/07/02 10:16:51;;;;;;;9.65;3.08;;;20.00;84.80;;;;;;4956409;28;20038;-57
2023/07/02 10:19:17;;;;;;;14.00;3.22;;;19.90;85.60;;;;;;4956453;28;20149;-59
2023/07/02 10:21:45;;;;;;;12.07;2.95;;;19.90;85.50;;;;;;4935431;28;20046;-62
2023/07/02 10:24:17;;;;;;;11.27;2.88;;;19.70;84.60;;;;;;4933574;28;20134;-61
2023/07/02 10:26:56;;;;;;;14.15;2.90;;;19.80;84.60;;;;;;4950792;28;20043;-61
2023/07/02 10:29:24;;;;;;;10.57;3.03;;;19.80;83.10;;;;;;4950327;28;20066;-61
2023/07/02 10:31:55;;;;;;;6.88;2.50;;;20.00;83.40;;;;;;4953915;28;20054;-60
2023/07/02 10:34:34;;;;;;;7.78;2.90;;;20.10;82.90;;;;;;4949741;28;20097;-61
2023/07/02 10:37:01;;;;;;;12.57;2.85;;;20.00;83.40;;;;;;4932362;28;20039;-61
2023/07/02 10:39:31;;;;;;;10.80;2.85;;;19.90;83.30;;;;;;4949962;28;21728;-61
2023/07/02 10:42:10;;;;;;;10.23;2.85;;;19.70;83.60;;;;;;4949637;28;20059;-60
2023/07/02 10:44:49;;;;;;;9.95;3.05;;;19.50;82.70;;;;;;4938143;28;20085;-61
2023/07/02 10:47:14;;;;;;;8.18;2.88;;;19.40;83.40;;;;;;4951523;28;20043;-61
2023/07/02 10:49:40;;;;;;;13.10;3.25;;;19.40;84.40;;;;;;4934923;28;20391;-60
2023/07/02 10:52:09;;;;;;;10.60;3.25;;;19.70;86.00;;;;;;4933809;28;20058;-62
2023/07/02 10:54:45;;;;;;;12.30;3.70;;;20.20;86.00;;;;;;4951312;28;21173;-62
2023/07/02 10:57:20;;;;;;;12.13;3.33;;;20.60;85.20;;;;;;4937701;28;20055;-62
2023/07/02 10:59:46;;;;;;;15.65;3.78;;;20.70;83.80;;;;;;4932924;28;20043;-61
2023/07/02 11:02:12;;;;;;;9.13;3.03;;;20.70;82.60;;;;;;4949865;28;20496;-61
2023/07/02 11:04:38;;;;;;;11.00;2.60;;;20.70;82.80;;;;;;4953168;28;20097;-61
2023/07/02 11:07:04;;;;;;;10.52;2.88;;;20.80;81.20;;;;;;4942797;28;20034;-62
2023/07/02 11:09:30;;;;;;;10.63;3.20;;;21.10;81.70;;;;;;4957997;28;20599;-61
2023/07/02 11:11:58;;;;;;;12.63;3.28;;;21.50;80.70;;;;;;4954055;28;20039;-61
2023/07/02 11:14:34;;;;;;;9.07;3.08;;;21.60;79.20;;;;;;4956512;28;20146;-62
2023/07/02 11:17:05;;;;;;;9.63;2.83;;;21.80;78.40;;;;;;4951889;28;20733;-61
2023/07/02 11:19:34;;;;;;;8.38;2.72;;;21.90;77.40;;;;;;4956015;28;20114;-59
2023/07/02 11:22:02;;;;;;;7.35;2.60;;;22.00;77.00;;;;;;4931500;28;25399;-61
2023/07/02 11:24:35;;;;;;;8.27;2.42;;;22.10;75.40;;;;;;4953672;28;20906;-61
2023/07/02 11:27:03;;;;;;;6.70;2.22;;;22.30;75.30;;;;;;4943118;28;20047;-62
2023/07/02 11:29:30;;;;;;;7.10;2.28;;;22.20;74.30;;;;;;4954935;28;20483;-61
2023/07/02 11:32:16;;;;;;;6.95;2.30;;;22.10;74.20;;;;;;4953872;28;20047;-62
2023/07/02 11:34:42;;;;;;;6.97;1.85;;;21.80;73.20;;;;;;4955723;28;20165;-61
2023/07/02 11:37:07;;;;;;;9.70;2.20;;;21.50;72.10;;;;;;4955898;28;20035;-61
2023/07/02 11:39:33;;;;;;;7.57;2.38;;;21.20;72.80;;;;;;4959225;28;20093;-62
2023/07/02 11:41:59;;;;;;;12.55;2.92;;;21.10;73.60;;;;;;4957687;28;20038;-61
2023/07/02 11:44:24;;;;;;;7.93;2.03;;;21.20;74.10;;;;;;4939550;28;20527;-61
2023/07/02 11:46:50;;;;;;;9.45;2.35;;;21.50;73.90;;;;;;4957584;28;20043;-61
2023/07/02 11:49:16;;;;;;;7.50;2.08;;;21.90;73.80;;;;;;4958583;28;20043;-62
2023/07/02 11:51:49;;;;;;;5.57;2.08;;;22.00;73.10;;;;;;4957751;28;20043;-61
2023/07/02 11:54:16;;;;;;;12.70;2.90;;;22.00;72.90;;;;;;4956914;28;20046;-62
2023/07/02 11:56:42;;;;;;;4.22;1.90;;;22.00;73.70;;;;;;4942596;28;20051;-62
2023/07/02 11:59:08;;;;;;;11.32;2.70;;;22.10;72.30;;;;;;4958067;28;20045;-61
2023/07/02 12:01:34;;;;;;;11.18;2.75;;;22.20;71.50;;;;;;4934592;28;20047;-62
2023/07/02 12:04:00;;;;;;;10.90;2.80;;;22.30;70.90;;;;;;4953840;28;20079;-62
2023/07/02 12:06:25;;;;;;;11.35;2.42;;;22.10;70.90;;;;;;4952261;28;20412;-62
2023/07/02 12:08:51;;;;;;;12.07;2.50;;;21.80;71.60;;;;;;4936667;28;20563;-62
2023/07/02 12:11:17;;;;;;;9.30;2.53;;;21.60;71.90;;;;;;4936049;28;20039;-61
2023/07/02 12:13:43;;;;;;;10.00;2.63;;;21.30;71.20;;;;;;4934313;28;20109;-61
2023/07/02 12:16:08;;;;;;;9.80;2.70;;;21.10;70.80;;;;;;4952794;28;20510;-61
2023/07/02 12:18:34;;;;;;;6.28;2.60;;;21.20;72.00;;;;;;4953150;28;20150;-61
2023/07/02 12:21:00;;;;;;;11.10;2.80;;;21.50;72.60;;;;;;4954641;28;20046;-61
2023/07/02 12:23:25;;;;;;;7.60;2.65;;;21.60;71.60;;;;;;4939125;28;20669;-62
2023/07/02 12:25:51;;;;;;;9.27;2.90;;;21.70;70.70;;;;;;4952689;28;20086;-62
2023/07/02 12:28:17;;;;;;;9.93;2.95;;;21.40;70.80;;;;;;4938934;28;20406;-61
2023/07/02 12:30:43;;;;;;;9.38;2.90;;;21.10;70.50;;;;;;4952402;28;20459;-61
2023/07/02 12:33:08;;;;;;;7.38;2.58;;;20.80;70.60;;;;;;4954097;28;20031;-62
2023/07/02 12:35:34;;;;;;;7.43;3.10;;;20.80;71.60;;;;;;4936466;28;20105;-62
2023/07/02 12:38:00;;;;;;;7.20;3.00;;;20.90;72.20;;;;;;4952421;28;20409;-62